createdAt,value
2022-10-25T00:01:38.107Z,8.43
2022-10-25T00:04:05.130Z,6.60
2022-10-25T00:06:31.763Z,5.80
2022-10-25T00:08:58.468Z,5.57
2022-10-25T00:11:27.640Z,9.05
2022-10-25T00:13:57.290Z,9.90
2022-10-25T00:16:26.055Z,5.97
2022-10-25T00:18:52.778Z,18.48
2022-10-25T00:21:19.602Z,7.20
2022-10-25T00:23:46.531Z,8.50
2022-10-25T00:26:13.491Z,6.30
2022-10-25T00:28:40.908Z,10.57
2022-10-25T00:31:12.082Z,8.50
2022-10-25T00:36:26.761Z,11.35
2022-10-25T00:38:55.903Z,6.50
2022-10-25T00:41:24.782Z,8.57
2022-10-25T00:43:53.252Z,7.72
2022-10-25T00:46:27.142Z,8.50
2022-10-25T00:51:25.824Z,5.38
2022-10-25T00:53:52.814Z,6.10
2022-10-25T00:56:21.972Z,8.88
2022-10-25T00:58:51.982Z,8.32
2022-10-25T01:01:18.893Z,7.55
2022-10-25T01:03:51.141Z,9.13
2022-10-25T01:06:21.906Z,7.57
2022-10-25T01:08:51.975Z,7.78
2022-10-25T01:11:19.827Z,8.18
2022-10-25T01:13:47.751Z,5.90
2022-10-25T01:16:23.762Z,6.00
2022-10-25T01:19:01.971Z,7.07
2022-10-25T01:21:39.612Z,5.88
2022-10-25T01:24:42.907Z,4.35
2022-10-25T01:27:22.900Z,5.80
2022-10-25T01:30:05.042Z,10.00
2022-10-25T01:32:38.549Z,9.63
2022-10-25T01:35:14.126Z,6.18
2022-10-25T01:37:48.850Z,10.18
2022-10-25T01:40:23.578Z,8.95
2022-10-25T01:42:58.156Z,6.05
2022-10-25T01:45:28.535Z,8.70
2022-10-25T01:48:03.555Z,8.23
2022-10-25T01:50:34.626Z,7.30
2022-10-25T01:53:01.532Z,7.20
2022-10-25T01:55:34.912Z,9.20
2022-10-25T01:58:11.187Z,7.75
2022-10-25T02:00:47.514Z,7.78
2022-10-25T02:03:26.022Z,4.93
2022-10-25T02:06:05.561Z,7.30
2022-10-25T02:08:37.016Z,7.50
2022-10-25T02:11:10.460Z,6.80
2022-10-25T02:13:47.197Z,4.43
2022-10-25T02:16:17.467Z,7.88
2022-10-25T02:18:50.096Z,3.72
2022-10-25T02:21:18.577Z,7.75
2022-10-25T02:23:47.566Z,8.30
2022-10-25T02:26:15.568Z,13.77
2022-10-25T02:28:42.640Z,10.77
2022-10-25T02:31:15.227Z,6.07
2022-10-25T02:33:45.383Z,8.38
2022-10-25T02:36:15.167Z,8.90
2022-10-25T02:38:42.925Z,9.70
2022-10-25T02:44:56.477Z,10.77
2022-10-25T02:47:23.147Z,6.03
2022-10-25T02:49:51.192Z,5.55
2022-10-25T02:52:17.906Z,10.45
2022-10-25T02:54:44.517Z,8.02
2022-10-25T02:57:11.171Z,9.35
2022-10-25T02:59:37.803Z,6.28
2022-10-25T03:02:04.489Z,10.90
2022-10-25T03:04:31.152Z,7.40
2022-10-25T03:06:59.180Z,7.10
2022-10-25T03:09:25.857Z,9.15
2022-10-25T03:11:52.462Z,10.90
2022-10-25T03:14:19.218Z,5.15
2022-10-25T03:19:13.052Z,6.65
2022-10-25T03:21:41.298Z,8.88
2022-10-25T03:24:10.111Z,6.25
2022-10-25T03:26:36.721Z,5.97
2022-10-25T03:29:03.762Z,12.18
2022-10-25T03:31:30.381Z,6.78
2022-10-25T03:33:56.986Z,11.35
2022-10-25T03:36:23.640Z,6.65
2022-10-25T03:38:50.265Z,12.02
2022-10-25T03:41:18.124Z,10.40
2022-10-25T03:43:44.746Z,10.52
2022-10-25T03:46:11.442Z,6.28
2022-10-25T03:48:38.109Z,9.45
2022-10-25T03:51:05.030Z,6.15
2022-10-25T03:53:32.263Z,7.30
2022-10-25T03:55:58.992Z,5.05
2022-10-25T03:58:26.956Z,6.47
2022-10-25T04:00:53.590Z,8.20
2022-10-25T04:03:20.438Z,9.00
2022-10-25T04:05:47.025Z,5.93
2022-10-25T04:08:13.604Z,8.05
2022-10-25T04:10:40.184Z,7.90
2022-10-25T04:13:06.822Z,8.50
2022-10-25T04:15:34.848Z,6.25
2022-10-25T04:18:01.456Z,6.43
2022-10-25T04:20:28.202Z,9.98
2022-10-25T04:22:55.739Z,7.88
2022-10-25T04:25:22.990Z,6.97
2022-10-25T04:27:49.855Z,9.63
2022-10-25T04:30:17.134Z,13.93
2022-10-25T04:32:45.620Z,7.80
2022-10-25T04:35:12.891Z,8.20
2022-10-25T04:37:39.570Z,7.22
2022-10-25T04:40:07.500Z,9.32
2022-10-25T04:42:34.883Z,8.75
2022-10-25T04:45:01.905Z,6.07
2022-10-25T04:47:30.971Z,7.80
2022-10-25T04:49:59.007Z,6.85
2022-10-25T04:52:25.908Z,7.60
2022-10-25T04:54:52.531Z,6.38
2022-10-25T04:57:19.352Z,8.80
2022-10-25T04:59:45.935Z,9.98
2022-10-25T05:02:12.604Z,8.88
2022-10-25T05:04:39.241Z,8.60
2022-10-25T09:01:28.943Z,6.18
2022-10-25T09:06:36.259Z,5.60
2022-10-25T11:38:03.096Z,12.32
2022-10-25T11:43:09.884Z,5.77
2022-10-25T14:30:20.460Z,6.93
2022-10-25T17:38:10.353Z,11.00
2022-10-25T17:40:37.498Z,13.80
2022-10-25T17:43:04.246Z,12.05
2022-10-25T17:45:32.632Z,13.70
2022-10-25T18:05:26.948Z,14.40
2022-10-25T19:33:51.479Z,8.33
2022-10-25T19:36:18.843Z,7.57
2022-10-25T19:41:15.108Z,8.50
2022-10-25T19:43:43.433Z,9.23
2022-10-25T19:46:12.092Z,9.15
2022-10-25T19:48:39.165Z,7.75
2022-10-25T19:51:08.110Z,13.45
2022-10-25T19:53:34.914Z,10.35
2022-10-25T19:56:04.012Z,11.82
2022-10-25T19:58:30.858Z,13.18
2022-10-25T20:01:08.229Z,11.60
2022-10-25T20:03:36.180Z,9.32
2022-10-25T20:06:05.939Z,13.50
2022-10-25T20:08:34.182Z,7.75
2022-10-25T20:11:01.102Z,14.68
2022-10-25T20:16:14.497Z,10.48
2022-10-25T20:18:42.392Z,9.68
2022-10-25T20:21:11.487Z,12.18
2022-10-25T20:23:39.540Z,15.85
2022-10-25T20:26:13.994Z,8.57
2022-10-25T20:28:41.080Z,13.70
2022-10-25T20:31:08.216Z,9.13
2022-10-25T20:33:36.455Z,12.13
2022-10-25T20:36:05.195Z,10.25
2022-10-25T20:38:31.916Z,8.98
2022-10-25T20:41:03.717Z,10.55
2022-10-25T20:43:30.497Z,10.82
2022-10-25T20:45:57.431Z,11.25
2022-10-25T20:48:24.235Z,18.30
2022-10-25T20:50:53.358Z,11.50
2022-10-25T20:53:21.132Z,11.23
2022-10-25T20:55:49.202Z,9.15
2022-10-25T20:58:16.034Z,15.52
2022-10-25T21:00:42.917Z,10.95
2022-10-25T21:03:09.640Z,9.68
2022-10-25T21:05:42.758Z,11.52
2022-10-25T21:08:11.277Z,10.88
2022-10-25T21:10:38.890Z,13.80
2022-10-25T21:13:05.812Z,10.30
2022-10-25T21:15:33.374Z,9.23
2022-10-25T21:18:00.219Z,11.45
2022-10-25T21:20:27.064Z,11.65
2022-10-25T21:22:55.195Z,12.20
2022-10-25T21:25:23.389Z,14.60
2022-10-25T21:27:50.404Z,12.75
2022-10-25T21:30:17.622Z,13.23
2022-10-25T21:32:44.243Z,11.50
2022-10-25T21:35:10.935Z,14.63
2022-10-25T21:37:37.634Z,12.20
2022-10-25T21:40:04.977Z,12.25
2022-10-25T21:42:33.705Z,13.27
2022-10-25T21:45:00.382Z,12.43
2022-10-25T21:47:27.074Z,16.02
2022-10-25T21:49:53.726Z,13.57
2022-10-25T21:52:20.559Z,10.70
2022-10-25T21:54:47.187Z,11.63
2022-10-25T21:57:14.012Z,11.57
2022-10-25T21:59:42.064Z,11.40
2022-10-25T22:02:08.836Z,12.98
2022-10-25T22:04:35.678Z,12.25
2022-10-25T22:07:02.280Z,17.30
2022-10-25T22:09:28.897Z,13.38
2022-10-25T22:11:55.655Z,13.80
2022-10-25T22:14:22.303Z,14.18
2022-10-25T22:16:50.341Z,13.48
2022-10-25T22:19:18.569Z,13.75
2022-10-25T22:21:45.850Z,14.70
2022-10-25T22:24:13.439Z,15.75
2022-10-25T22:26:42.223Z,14.98
2022-10-25T22:29:10.939Z,19.70
2022-10-25T22:31:38.279Z,18.20
2022-10-25T22:34:07.915Z,14.18
2022-10-25T22:36:36.790Z,16.15
2022-10-25T22:39:04.370Z,14.13
2022-10-25T22:41:31.784Z,14.30
2022-10-25T22:43:58.760Z,15.73
2022-10-25T22:46:27.387Z,14.82
2022-10-25T22:48:55.639Z,18.67
2022-10-25T22:51:24.996Z,21.23
2022-10-25T22:53:51.967Z,14.45
2022-10-25T22:56:20.383Z,18.10
2022-10-25T22:58:49.359Z,17.23
2022-10-25T23:01:17.698Z,15.73
2022-10-25T23:03:45.668Z,19.55
2022-10-25T23:06:14.790Z,21.58
2022-10-25T23:08:43.260Z,18.75
2022-10-25T23:11:14.141Z,17.20
2022-10-25T23:13:41.270Z,17.48
2022-10-25T23:16:09.174Z,15.85
2022-10-25T23:18:36.006Z,17.90
2022-10-25T23:21:03.726Z,15.18
2022-10-25T23:23:34.104Z,16.23
2022-10-25T23:26:03.344Z,15.27
2022-10-25T23:28:31.328Z,21.20
2022-10-25T23:31:04.227Z,17.45
2022-10-25T23:33:31.062Z,14.20
2022-10-25T23:36:02.564Z,16.00
2022-10-25T23:38:29.590Z,11.02
2022-10-25T23:40:56.561Z,16.38
2022-10-25T23:43:24.642Z,14.63
2022-10-25T23:45:51.312Z,13.63
2022-10-25T23:48:17.933Z,14.77
2022-10-25T23:50:44.584Z,14.82
2022-10-25T23:53:11.274Z,13.65
2022-10-25T23:55:38.701Z,22.40
2022-10-25T23:58:05.435Z,13.73
